Time,TemperatureF,DewpointF,PressureIn,WindDirection,WindDirectionDegrees,WindSpeedMPH,WindSpeedGustMPH,Humidity,HourlyPrecipIn,Conditions,Clouds,dailyrainin,SoftwareType,DateUTC
2013-02-23 00:02:00,26.0,-99.9,-100.00,West,267,9.0,12.0,-999,0.00,,,0.04,,2013-02-23 06:02:00,
2013-02-23 00:11:00,26.0,-99.9,-100.00,West,263,9.0,11.0,-999,0.00,,,0.04,,2013-02-23 06:11:00,
2013-02-23 00:23:00,26.0,-99.9,-100.00,West,263,9.0,11.0,-999,0.00,,,0.04,,2013-02-23 06:23:00,
2013-02-23 00:32:00,25.0,-99.9,-100.00,West,261,8.0,10.0,-999,0.00,,,0.04,,2013-02-23 06:32:00,
2013-02-23 00:42:00,25.0,-99.9,-100.00,West,261,8.0,10.0,-999,0.00,,,0.04,,2013-02-23 06:42:00,
2013-02-23 00:52:00,25.0,-99.9,-100.00,West,261,8.0,10.0,-999,0.00,,,0.04,,2013-02-23 06:52:00,
2013-02-23 01:01:00,25.0,-99.9,-100.00,West,261,8.0,10.0,-999,0.00,,,0.04,,2013-02-23 07:01:00,
2013-02-23 01:11:00,25.0,-99.9,-100.00,West,259,7.0,10.0,-999,0.00,,,0.04,,2013-02-23 07:11:00,
2013-02-23 01:21:00,25.0,-99.9,-100.00,West,259,7.0,10.0,-999,0.00,,,0.04,,2013-02-23 07:21:00,
2013-02-23 01:32:00,25.0,-99.9,-100.00,West,259,7.0,10.0,-999,0.00,,,0.04,,2013-02-23 07:32:00,
2013-02-23 01:42:00,25.0,-99.9,-100.00,WSW,258,7.0,9.0,-999,0.00,,,0.04,,2013-02-23 07:42:00,
2013-02-23 01:52:00,25.0,-99.9,-100.00,WSW,258,7.0,9.0,-999,0.00,,,0.04,,2013-02-23 07:52:00,
2013-02-23 02:01:00,25.0,-99.9,-100.00,WSW,258,7.0,9.0,-999,0.00,,,0.04,,2013-02-23 08:01:00,
2013-02-23 02:11:00,25.0,-99.9,-100.00,WSW,257,8.0,13.0,-999,0.00,,,0.04,,2013-02-23 08:11:00,
2013-02-23 02:22:00,25.0,-99.9,-100.00,WSW,257,8.0,13.0,-999,0.00,,,0.04,,2013-02-23 08:22:00,
2013-02-23 02:32:00,25.0,-99.9,-100.00,WSW,257,8.0,13.0,-999,0.00,,,0.04,,2013-02-23 08:32:00,
2013-02-23 02:42:00,25.0,-99.9,-100.00,WSW,256,7.0,9.0,-999,0.00,,,0.04,,2013-02-23 08:42:00,
2013-02-23 02:53:00,25.0,-99.9,-100.00,WSW,256,7.0,9.0,-999,0.00,,,0.04,,2013-02-23 08:53:00,
2013-02-23 03:02:00,25.0,-99.9,-100.00,WSW,256,7.0,9.0,-999,0.00,,,0.04,,2013-02-23 09:02:00,
2013-02-23 03:11:00,25.0,-99.9,-100.00,WSW,258,8.0,12.0,-999,0.00,,,-99.99,,2013-02-23 09:11:00,
2013-02-23 03:22:00,25.0,-99.9,-100.00,WSW,258,8.0,12.0,-999,0.00,,,-99.99,,2013-02-23 09:22:00,
2013-02-23 03:32:00,25.0,-99.9,-100.00,WSW,258,8.0,12.0,-999,0.00,,,-99.99,,2013-02-23 09:32:00,
2013-02-23 03:42:00,25.0,-99.9,-100.00,WSW,251,9.0,11.0,-999,0.00,,,0.04,,2013-02-23 09:42:00,
2013-02-23 03:52:00,25.0,-99.9,-100.00,WSW,251,9.0,11.0,-999,0.00,,,0.04,,2013-02-23 09:52:00,
2013-02-23 04:01:00,25.0,-99.9,-100.00,WSW,251,9.0,11.0,-999,0.00,,,0.04,,2013-02-23 10:01:00,
2013-02-23 04:11:00,25.0,-99.9,-100.00,West,259,9.0,12.0,-999,0.00,,,0.04,,2013-02-23 10:11:00,
2013-02-23 04:21:00,25.0,-99.9,-100.00,West,259,9.0,12.0,-999,0.00,,,0.04,,2013-02-23 10:21:00,
2013-02-23 04:32:00,25.0,-99.9,-100.00,West,259,9.0,12.0,-999,0.00,,,0.04,,2013-02-23 10:32:00,
2013-02-23 04:42:00,24.0,-99.9,-100.00,WSW,252,7.0,11.0,-999,0.00,,,0.04,,2013-02-23 10:42:00,
2013-02-23 04:52:00,24.0,-99.9,-100.00,WSW,252,7.0,11.0,-999,0.00,,,0.04,,2013-02-23 10:52:00,
2013-02-23 05:02:00,24.0,-99.9,-100.00,WSW,252,7.0,11.0,-999,0.00,,,0.04,,2013-02-23 11:02:00,
2013-02-23 05:11:00,24.0,-99.9,-100.00,WSW,258,9.0,12.0,-999,0.00,,,0.04,,2013-02-23 11:11:00,
2013-02-23 05:22:00,24.0,-99.9,-100.00,WSW,258,9.0,12.0,-999,0.00,,,0.04,,2013-02-23 11:22:00,
2013-02-23 05:32:00,24.0,-99.9,-100.00,WSW,258,9.0,12.0,-999,0.00,,,0.04,,2013-02-23 11:32:00,
2013-02-23 05:42:00,24.0,-99.9,-100.00,West,269,7.0,9.0,-999,0.00,,,0.04,,2013-02-23 11:42:00,
2013-02-23 05:53:00,24.0,-99.9,-100.00,West,269,7.0,9.0,-999,0.00,,,0.04,,2013-02-23 11:53:00,
2013-02-23 06:02:00,24.0,-99.9,-100.00,West,269,7.0,9.0,-999,0.00,,,0.04,,2013-02-23 12:02:00,
2013-02-23 06:11:00,24.0,-99.9,-100.00,West,264,7.0,9.0,-999,0.00,,,0.04,,2013-02-23 12:11:00,
2013-02-23 06:22:00,24.0,-99.9,-100.00,West,264,7.0,9.0,-999,0.00,,,0.04,,2013-02-23 12:22:00,
2013-02-23 06:32:00,24.0,-99.9,-100.00,West,266,7.0,10.0,-999,0.00,,,-99.99,,2013-02-23 12:32:00,
2013-02-23 06:42:00,24.0,-99.9,-100.00,West,266,7.0,10.0,-999,0.00,,,-99.99,,2013-02-23 12:42:00,
2013-02-23 06:53:00,24.0,-99.9,-100.00,West,266,7.0,10.0,-999,0.00,,,-99.99,,2013-02-23 12:53:00,
2013-02-23 07:02:00,24.0,-99.9,-100.00,West,266,7.0,10.0,-999,0.00,,,-99.99,,2013-02-23 13:02:00,
2013-02-23 07:12:00,24.0,-99.9,-100.00,West,259,8.0,12.0,-999,0.00,,,0.04,,2013-02-23 13:12:00,
2013-02-23 07:22:00,24.0,-99.9,-100.00,West,259,8.0,12.0,-999,0.00,,,0.04,,2013-02-23 13:22:00,
2013-02-23 07:32:00,24.0,-99.9,-100.00,West,259,8.0,12.0,-999,0.00,,,0.04,,2013-02-23 13:32:00,
2013-02-23 07:42:00,24.0,-99.9,-100.00,West,274,9.0,14.0,-999,0.00,,,0.04,,2013-02-23 13:42:00,
2013-02-23 07:52:00,24.0,-99.9,-100.00,West,274,9.0,14.0,-999,0.00,,,0.04,,2013-02-23 13:52:00,
2013-02-23 08:02:00,24.0,-99.9,-100.00,West,274,9.0,14.0,-999,0.00,,,0.04,,2013-02-23 14:02:00,
2013-02-23 08:11:00,24.0,-99.9,-100.00,WSW,253,7.0,9.0,-999,0.00,,,0.04,,2013-02-23 14:11:00,
2013-02-23 08:22:00,24.0,-99.9,-100.00,WSW,253,7.0,9.0,-999,0.00,,,0.04,,2013-02-23 14:22:00,
2013-02-23 08:33:00,24.0,-99.9,-100.00,WSW,253,7.0,9.0,-999,0.00,,,0.04,,2013-02-23 14:33:00,
2013-02-23 08:42:00,24.0,-99.9,-100.00,West,260,7.0,9.0,-999,0.00,,,0.04,,2013-02-23 14:42:00,
2013-02-23 08:52:00,24.0,-99.9,-100.00,West,260,7.0,9.0,-999,0.00,,,0.04,,2013-02-23 14:52:00,
2013-02-23 09:02:00,24.0,-99.9,-100.00,West,260,7.0,9.0,-999,0.00,,,0.04,,2013-02-23 15:02:00,
2013-02-23 09:11:00,25.0,-99.9,-100.00,WSW,248,6.0,8.0,-999,0.00,,,0.04,,2013-02-23 15:11:00,
2013-02-23 09:22:00,25.0,-99.9,-100.00,WSW,248,6.0,8.0,-999,0.00,,,0.04,,2013-02-23 15:22:00,
2013-02-23 09:32:00,25.0,-99.9,-100.00,WSW,248,6.0,8.0,-999,0.00,,,0.04,,2013-02-23 15:32:00,
2013-02-23 09:42:00,25.0,-99.9,-100.00,WSW,257,9.0,12.0,-999,0.00,,,0.04,,2013-02-23 15:42:00,
2013-02-23 09:52:00,25.0,-99.9,-100.00,WSW,257,9.0,12.0,-999,0.00,,,0.04,,2013-02-23 15:52:00,
2013-02-23 10:01:00,25.0,-99.9,-100.00,WSW,257,9.0,12.0,-999,0.00,,,0.04,,2013-02-23 16:01:00,
2013-02-23 10:11:00,27.0,-99.9,-100.00,WSW,247,7.0,11.0,-999,0.00,,,0.04,,2013-02-23 16:11:00,
2013-02-23 10:22:00,27.0,-99.9,-100.00,WSW,247,7.0,11.0,-999,0.00,,,0.04,,2013-02-23 16:22:00,
2013-02-23 10:32:00,27.0,-99.9,-100.00,WSW,247,7.0,11.0,-999,0.00,,,0.04,,2013-02-23 16:32:00,
2013-02-23 10:42:00,28.0,-99.9,-100.00,West,267,7.0,11.0,-999,0.00,,,0.04,,2013-02-23 16:42:00,
2013-02-23 10:52:00,28.0,-99.9,-100.00,West,267,7.0,11.0,-999,0.00,,,0.04,,2013-02-23 16:52:00,
2013-02-23 11:01:00,28.0,-99.9,-100.00,West,267,7.0,11.0,-999,0.00,,,0.04,,2013-02-23 17:01:00,
2013-02-23 11:11:00,28.0,-99.9,-100.00,West,259,9.0,13.0,-999,0.00,,,0.01,,2013-02-23 17:11:00,
2013-02-23 11:22:00,28.0,-99.9,-100.00,West,259,9.0,13.0,-999,0.00,,,0.01,,2013-02-23 17:22:00,
2013-02-23 11:32:00,28.0,-99.9,-100.00,West,260,9.0,14.0,-999,0.00,,,0.01,,2013-02-23 17:32:00,
2013-02-23 11:42:00,28.0,-99.9,-100.00,West,260,9.0,14.0,-999,0.00,,,0.01,,2013-02-23 17:42:00,
2013-02-23 11:52:00,28.0,-99.9,-100.00,West,260,9.0,14.0,-999,0.00,,,0.01,,2013-02-23 17:52:00,
2013-02-23 12:02:00,28.0,-99.9,-100.00,West,260,9.0,14.0,-999,0.00,,,0.01,,2013-02-23 18:02:00,
2013-02-23 12:12:00,29.0,-99.9,-100.00,WSW,257,10.0,14.0,-999,0.00,,,0.01,,2013-02-23 18:12:00,
2013-02-23 12:22:00,29.0,-99.9,-100.00,WSW,257,10.0,14.0,-999,0.00,,,0.01,,2013-02-23 18:22:00,
2013-02-23 12:32:00,29.0,-99.9,-100.00,WSW,257,10.0,14.0,-999,0.00,,,0.01,,2013-02-23 18:32:00,
2013-02-23 12:42:00,30.0,-99.9,-100.00,WSW,249,8.0,11.0,-999,0.00,,,0.00,,2013-02-23 18:42:00,
2013-02-23 12:52:00,30.0,-99.9,-100.00,WSW,249,8.0,11.0,-999,0.00,,,0.00,,2013-02-23 18:52:00,
2013-02-23 13:01:00,30.0,-99.9,-100.00,WSW,249,8.0,11.0,-999,0.00,,,0.00,,2013-02-23 19:01:00,
2013-02-23 13:12:00,30.0,-99.9,-100.00,WSW,253,7.0,11.0,-999,0.00,,,0.00,,2013-02-23 19:12:00,
2013-02-23 13:22:00,30.0,-99.9,-100.00,WSW,253,7.0,11.0,-999,0.00,,,0.00,,2013-02-23 19:22:00,
2013-02-23 13:32:00,30.0,-99.9,-100.00,WSW,253,7.0,11.0,-999,0.00,,,0.00,,2013-02-23 19:32:00,
2013-02-23 13:42:00,30.0,-99.9,-100.00,West,265,10.0,15.0,-999,0.00,,,0.00,,2013-02-23 19:42:00,
2013-02-23 13:52:00,30.0,-99.9,-100.00,West,265,10.0,15.0,-999,0.00,,,0.00,,2013-02-23 19:52:00,
2013-02-23 14:01:00,30.0,-99.9,-100.00,West,265,10.0,15.0,-999,0.00,,,0.00,,2013-02-23 20:01:00,
2013-02-23 14:11:00,31.0,-99.9,-100.00,WSW,241,7.0,11.0,-999,0.00,,,0.00,,2013-02-23 20:11:00,
2013-02-23 14:22:00,31.0,-99.9,-100.00,WSW,241,7.0,11.0,-999,0.00,,,0.00,,2013-02-23 20:22:00,
2013-02-23 14:32:00,31.0,-99.9,-100.00,WSW,241,7.0,11.0,-999,0.00,,,0.00,,2013-02-23 20:32:00,
2013-02-23 14:42:00,30.0,-99.9,-100.00,WSW,256,9.0,12.0,-999,0.00,,,0.00,,2013-02-23 20:42:00,
2013-02-23 14:53:00,30.0,-99.9,-100.00,WSW,256,9.0,12.0,-999,0.00,,,0.00,,2013-02-23 20:53:00,
2013-02-23 15:02:00,30.0,-99.9,-100.00,WSW,256,9.0,12.0,-999,0.00,,,0.00,,2013-02-23 21:02:00,
2013-02-23 15:12:00,31.0,-99.9,-100.00,WSW,253,8.0,11.0,-999,0.00,,,0.00,,2013-02-23 21:12:00,
2013-02-23 15:22:00,31.0,-99.9,-100.00,WSW,253,8.0,11.0,-999,0.00,,,0.00,,2013-02-23 21:22:00,
2013-02-23 15:32:00,31.0,-99.9,-100.00,WSW,253,8.0,11.0,-999,0.00,,,0.00,,2013-02-23 21:32:00,
2013-02-23 15:42:00,31.0,-99.9,-100.00,WSW,241,8.0,12.0,-999,0.00,,,0.00,,2013-02-23 21:42:00,
2013-02-23 15:52:00,31.0,-99.9,-100.00,WSW,241,8.0,12.0,-999,0.00,,,0.00,,2013-02-23 21:52:00,
2013-02-23 16:02:00,31.0,-99.9,-100.00,WSW,241,8.0,12.0,-999,0.00,,,0.00,,2013-02-23 22:02:00,
2013-02-23 16:11:00,31.0,-99.9,-100.00,WSW,253,9.0,12.0,-999,0.00,,,0.00,,2013-02-23 22:11:00,
2013-02-23 16:22:00,31.0,-99.9,-100.00,WSW,253,9.0,12.0,-999,0.00,,,0.00,,2013-02-23 22:22:00,
2013-02-23 16:32:00,31.0,-99.9,-100.00,WSW,253,9.0,12.0,-999,0.00,,,0.00,,2013-02-23 22:32:00,
2013-02-23 16:42:00,31.0,-99.9,-100.00,WSW,246,8.0,10.0,-999,0.00,,,0.00,,2013-02-23 22:42:00,
2013-02-23 16:52:00,31.0,-99.9,-100.00,WSW,246,8.0,10.0,-999,0.00,,,0.00,,2013-02-23 22:52:00,
2013-02-23 17:02:00,31.0,-99.9,-100.00,WSW,246,8.0,10.0,-999,0.00,,,0.00,,2013-02-23 23:02:00,
2013-02-23 17:11:00,31.0,-99.9,-100.00,SW,235,5.0,9.0,-999,0.00,,,0.00,,2013-02-23 23:11:00,
2013-02-23 17:22:00,31.0,-99.9,-100.00,SW,235,5.0,9.0,-999,0.00,,,0.00,,2013-02-23 23:22:00,
2013-02-23 17:32:00,31.0,-99.9,-100.00,SW,235,5.0,9.0,-999,0.00,,,0.00,,2013-02-23 23:32:00,
2013-02-23 17:42:00,31.0,-99.9,-100.00,SW,229,6.0,9.0,-999,0.00,,,0.00,,2013-02-23 23:42:00,
2013-02-23 17:52:00,31.0,-99.9,-100.00,SW,229,6.0,9.0,-999,0.00,,,0.00,,2013-02-23 23:52:00,
2013-02-23 18:02:00,31.0,-99.9,-100.00,SW,229,6.0,9.0,-999,0.00,,,0.00,,2013-02-24 00:02:00,
2013-02-23 18:11:00,30.0,-99.9,-100.00,SSW,209,3.0,5.0,-999,0.00,,,0.00,,2013-02-24 00:11:00,
2013-02-23 18:22:00,30.0,-99.9,-100.00,SSW,209,3.0,5.0,-999,0.00,,,0.00,,2013-02-24 00:22:00,
2013-02-23 18:32:00,30.0,-99.9,-100.00,SSW,209,3.0,5.0,-999,0.00,,,0.00,,2013-02-24 00:32:00,
2013-02-23 18:42:00,29.0,-99.9,-100.00,SSW,211,3.0,4.0,-999,0.00,,,0.00,,2013-02-24 00:42:00,
2013-02-23 18:52:00,29.0,-99.9,-100.00,SSW,211,3.0,4.0,-999,0.00,,,0.00,,2013-02-24 00:52:00,
2013-02-23 19:01:00,29.0,-99.9,-100.00,SSW,211,3.0,4.0,-999,0.00,,,0.00,,2013-02-24 01:01:00,
2013-02-23 19:11:00,29.0,-99.9,-100.00,SSW,194,2.0,4.0,-999,0.00,,,0.00,,2013-02-24 01:11:00,
2013-02-23 19:22:00,29.0,-99.9,-100.00,SSW,194,2.0,4.0,-999,0.00,,,0.00,,2013-02-24 01:22:00,
2013-02-23 19:32:00,29.0,-99.9,-100.00,SSW,194,2.0,4.0,-999,0.00,,,0.00,,2013-02-24 01:32:00,
2013-02-23 19:42:00,28.0,-99.9,-100.00,SSW,192,2.0,3.0,-999,0.00,,,0.00,,2013-02-24 01:42:00,
2013-02-23 19:52:00,28.0,-99.9,-100.00,SSW,192,2.0,3.0,-999,0.00,,,0.00,,2013-02-24 01:52:00,
2013-02-23 20:01:00,28.0,-99.9,-100.00,SSW,192,2.0,3.0,-999,0.00,,,0.00,,2013-02-24 02:01:00,
2013-02-23 20:12:00,27.0,-99.9,-100.00,SSW,193,2.0,4.0,-999,0.00,,,0.00,,2013-02-24 02:12:00,
2013-02-23 20:22:00,27.0,-99.9,-100.00,SSW,193,2.0,4.0,-999,0.00,,,0.00,,2013-02-24 02:22:00,
2013-02-23 20:32:00,27.0,-99.9,-100.00,SSW,193,2.0,4.0,-999,0.00,,,0.00,,2013-02-24 02:32:00,
2013-02-23 20:42:00,27.0,-99.9,-100.00,SSW,213,3.0,6.0,-999,0.00,,,0.00,,2013-02-24 02:42:00,
2013-02-23 20:52:00,27.0,-99.9,-100.00,SSW,213,3.0,6.0,-999,0.00,,,0.00,,2013-02-24 02:52:00,
2013-02-23 21:02:00,27.0,-99.9,-100.00,SSW,213,3.0,6.0,-999,0.00,,,0.00,,2013-02-24 03:02:00,
2013-02-23 21:12:00,26.0,-99.9,-100.00,SSW,210,4.0,6.0,-999,0.00,,,0.00,,2013-02-24 03:12:00,
2013-02-23 21:22:00,26.0,-99.9,-100.00,SSW,210,4.0,6.0,-999,0.00,,,0.00,,2013-02-24 03:22:00,
2013-02-23 21:32:00,26.0,-99.9,-100.00,SSW,210,4.0,6.0,-999,0.00,,,0.00,,2013-02-24 03:32:00,
2013-02-23 21:42:00,26.0,-99.9,-100.00,SW,214,3.0,5.0,-999,0.00,,,0.00,,2013-02-24 03:42:00,
2013-02-23 21:52:00,26.0,-99.9,-100.00,SW,214,3.0,5.0,-999,0.00,,,0.00,,2013-02-24 03:52:00,
2013-02-23 22:02:00,26.0,-99.9,-100.00,SW,214,3.0,5.0,-999,0.00,,,0.00,,2013-02-24 04:02:00,
2013-02-23 22:11:00,26.0,-99.9,-100.00,SW,214,3.0,4.0,-999,0.00,,,0.00,,2013-02-24 04:11:00,
2013-02-23 22:22:00,26.0,-99.9,-100.00,SW,214,3.0,4.0,-999,0.00,,,0.00,,2013-02-24 04:22:00,
2013-02-23 22:32:00,26.0,-99.9,-100.00,SW,214,3.0,4.0,-999,0.00,,,0.00,,2013-02-24 04:32:00,
2013-02-23 22:42:00,25.0,-99.9,-100.00,SSW,209,2.0,4.0,-999,0.00,,,0.00,,2013-02-24 04:42:00,
2013-02-23 22:52:00,25.0,-99.9,-100.00,SSW,209,2.0,4.0,-999,0.00,,,0.00,,2013-02-24 04:52:00,
2013-02-23 23:01:00,25.0,-99.9,-100.00,SSW,209,2.0,4.0,-999,0.00,,,0.00,,2013-02-24 05:01:00,
2013-02-23 23:11:00,25.0,-99.9,-100.00,South,177,1.0,2.0,-999,0.00,,,0.00,,2013-02-24 05:11:00,
2013-02-23 23:22:00,25.0,-99.9,-100.00,South,177,1.0,2.0,-999,0.00,,,0.00,,2013-02-24 05:22:00,
2013-02-23 23:32:00,25.0,-99.9,-100.00,South,177,1.0,2.0,-999,0.00,,,0.00,,2013-02-24 05:32:00,
2013-02-23 23:42:00,24.0,-99.9,-100.00,WSW,241,3.0,3.0,-999,0.00,,,0.00,,2013-02-24 05:42:00,
2013-02-23 23:52:00,24.0,-99.9,-100.00,WSW,241,3.0,3.0,-999,0.00,,,0.00,,2013-02-24 05:52:00,